الصفحة الرئيسية
METAR-TAF:

METAR-TAF

مطار :

Olympic Dam, أستراليا

دائرة عرض: 30-29-06S, خط طول: 136-52-36E, ارتفاع: 105 متر

مراقبة الطقس الحالي

تاريخ ووقت الإصدار 1ساعة و 10 دقيقة قبل الساعة 20:00UTC
ريح 9 عقدة من الشمال/الشمال الشرقي
درجة الحرارة 10°درجة مئوية
الرطوبة 57%
ضغط 1020 hPa
الرؤية 10 كم أو أكثر

METAR: YOLD 252000Z AUTO 03009KT 9999 // NCD 10/02 Q1020

زمن: 06:40 (21:10 UTC)

توقعات

تاريخ ووقت الإصدار 2ساعات و 4 دقيقة قبل الساعة 19:06UTC
التوقعات صالحة من25 الساعة 20 UTC إلى 26 الساعة 08 UTC
ريح 9 عقدة من الشمال/الشمال الشرقي
الرؤية 10 كم أو أكثر
الغيوم لا تقل 1500 م ولا وجود لمزنة ركامية السحاب الأسود
من 26 الساعة 0100 UTC
ريح 14 عقدة من الشمال
الرؤية 10 كم أو أكثر
الغيوم لا تقل 1500 م ولا وجود لمزنة ركامية السحاب الأسود

TAF: YOLD 251906Z 2520/2608 02009KT CAVOK FM260100 01014KT CAVOK

أرصاد الطقس والتوقعات من أكثر من 4000 مطار (تقارير الطقس للمطار METAR والتنبؤ بالطقس بالمطارTAF).

المحطات المتاحة هي النقط الصفراء والحمراء على الخريطة.

حرك المؤشر فوق النقطة لمعرفة اسم المحطة.

ثم انقر لمعرفة أرصاد وتوقعات الطقس.

لتغيير الخارطة: اضغط على الأزرار الخضراء مع رمز الصليب الأسود للتكبير. على الزر الأخضر مع شرطة للتصغير، أو على الأسهم الخضراء للخرائط المجاورة.


METAR-TAF: